sensor_id;sensor_type;location;lat;lon;timestamp;P1;durP1;ratioP1;P2;durP2;ratioP2
48613;SDS011;34408;51.426;5.444;2024-03-23T00:55:37;8.75;;;2.83;;
48613;SDS011;34408;51.426;5.444;2024-03-23T00:58:04;9.98;;;3.38;;
48613;SDS011;34408;51.426;5.444;2024-03-23T01:00:30;5.40;;;2.25;;
48613;SDS011;34408;51.426;5.444;2024-03-23T01:02:57;7.97;;;2.17;;
48613;SDS011;34408;51.426;5.444;2024-03-23T01:05:23;11.73;;;2.85;;
48613;SDS011;34408;51.426;5.444;2024-03-23T01:07:49;10.13;;;3.13;;
48613;SDS011;34408;51.426;5.444;2024-03-23T01:10:15;8.90;;;2.35;;
48613;SDS011;34408;51.426;5.444;2024-03-23T01:12:43;9.45;;;3.05;;
48613;SDS011;34408;51.426;5.444;2024-03-23T01:15:09;14.00;;;3.00;;
48613;SDS011;34408;51.426;5.444;2024-03-23T01:17:36;8.20;;;3.25;;
48613;SDS011;34408;51.426;5.444;2024-03-23T01:20:02;8.95;;;2.40;;
48613;SDS011;34408;51.426;5.444;2024-03-23T01:22:29;8.07;;;2.58;;
48613;SDS011;34408;51.426;5.444;2024-03-23T01:24:55;9.93;;;2.88;;
48613;SDS011;34408;51.426;5.444;2024-03-23T01:27:22;10.95;;;3.15;;
48613;SDS011;34408;51.426;5.444;2024-03-23T01:29:49;9.80;;;2.42;;
48613;SDS011;34408;51.426;5.444;2024-03-23T01:32:17;7.90;;;2.40;;
48613;SDS011;34408;51.426;5.444;2024-03-23T01:34:43;7.28;;;2.35;;
48613;SDS011;34408;51.426;5.444;2024-03-23T01:37:10;8.30;;;2.50;;
48613;SDS011;34408;51.426;5.444;2024-03-23T01:39:36;9.73;;;2.67;;
48613;SDS011;34408;51.426;5.444;2024-03-23T01:42:03;8.80;;;2.30;;
48613;SDS011;34408;51.426;5.444;2024-03-23T01:46:57;12.30;;;2.60;;
48613;SDS011;34408;51.426;5.444;2024-03-23T01:49:23;5.90;;;2.30;;
48613;SDS011;34408;51.426;5.444;2024-03-23T01:51:50;9.63;;;2.63;;
48613;SDS011;34408;51.426;5.444;2024-03-23T01:54:16;11.07;;;3.10;;
48613;SDS011;34408;51.426;5.444;2024-03-23T01:56:43;12.48;;;3.10;;
48613;SDS011;34408;51.426;5.444;2024-03-23T01:59:09;8.48;;;3.05;;
48613;SDS011;34408;51.426;5.444;2024-03-23T02:01:35;11.43;;;2.88;;
48613;SDS011;34408;51.426;5.444;2024-03-23T02:04:03;7.57;;;2.67;;
48613;SDS011;34408;51.426;5.444;2024-03-23T02:06:30;8.98;;;3.20;;
48613;SDS011;34408;51.426;5.444;2024-03-23T02:08:56;8.27;;;2.72;;
48613;SDS011;34408;51.426;5.444;2024-03-23T02:11:23;9.65;;;3.20;;
48613;SDS011;34408;51.426;5.444;2024-03-23T02:13:49;12.65;;;3.35;;
48613;SDS011;34408;51.426;5.444;2024-03-23T02:16:16;9.20;;;2.85;;
48613;SDS011;34408;51.426;5.444;2024-03-23T02:18:42;11.07;;;2.60;;
48613;SDS011;34408;51.426;5.444;2024-03-23T02:21:10;9.52;;;3.05;;
48613;SDS011;34408;51.426;5.444;2024-03-23T02:23:38;8.45;;;3.00;;
48613;SDS011;34408;51.426;5.444;2024-03-23T02:26:04;10.82;;;3.25;;
48613;SDS011;34408;51.426;5.444;2024-03-23T02:28:31;8.30;;;2.95;;
48613;SDS011;34408;51.426;5.444;2024-03-23T02:30:56;5.55;;;2.20;;
48613;SDS011;34408;51.426;5.444;2024-03-23T02:33:24;7.97;;;2.55;;
48613;SDS011;34408;51.426;5.444;2024-03-23T02:35:49;9.23;;;3.28;;
48613;SDS011;34408;51.426;5.444;2024-03-23T02:38:16;10.85;;;2.95;;
48613;SDS011;34408;51.426;5.444;2024-03-23T02:40:43;7.82;;;2.90;;
48613;SDS011;34408;51.426;5.444;2024-03-23T02:43:10;9.75;;;2.80;;
48613;SDS011;34408;51.426;5.444;2024-03-23T02:45:36;8.25;;;2.50;;
48613;SDS011;34408;51.426;5.444;2024-03-23T02:48:03;8.75;;;2.42;;
48613;SDS011;34408;51.426;5.444;2024-03-23T02:50:30;9.32;;;2.97;;
48613;SDS011;34408;51.426;5.444;2024-03-23T02:52:56;11.02;;;3.40;;
48613;SDS011;34408;51.426;5.444;2024-03-23T02:55:22;8.75;;;2.70;;
48613;SDS011;34408;51.426;5.444;2024-03-23T02:57:50;8.55;;;2.50;;
48613;SDS011;34408;51.426;5.444;2024-03-23T03:00:16;7.75;;;2.67;;
48613;SDS011;34408;51.426;5.444;2024-03-23T03:02:43;11.45;;;3.10;;
48613;SDS011;34408;51.426;5.444;2024-03-23T03:05:09;8.05;;;2.55;;
48613;SDS011;34408;51.426;5.444;2024-03-23T03:07:38;7.05;;;2.60;;
48613;SDS011;34408;51.426;5.444;2024-03-23T03:10:06;8.90;;;2.60;;
48613;SDS011;34408;51.426;5.444;2024-03-23T03:12:36;13.35;;;3.00;;
48613;SDS011;34408;51.426;5.444;2024-03-23T03:15:04;10.48;;;3.28;;
48613;SDS011;34408;51.426;5.444;2024-03-23T03:17:31;6.85;;;2.13;;
48613;SDS011;34408;51.426;5.444;2024-03-23T03:19:57;5.60;;;2.60;;
48613;SDS011;34408;51.426;5.444;2024-03-23T03:22:25;13.88;;;2.85;;
48613;SDS011;34408;51.426;5.444;2024-03-23T03:24:51;10.93;;;2.70;;
48613;SDS011;34408;51.426;5.444;2024-03-23T03:27:17;9.90;;;3.03;;
48613;SDS011;34408;51.426;5.444;2024-03-23T03:29:43;12.95;;;3.38;;
48613;SDS011;34408;51.426;5.444;2024-03-23T03:32:11;5.50;;;2.08;;
48613;SDS011;34408;51.426;5.444;2024-03-23T03:34:37;5.85;;;3.17;;
48613;SDS011;34408;51.426;5.444;2024-03-23T03:37:04;9.63;;;3.22;;
48613;SDS011;34408;51.426;5.444;2024-03-23T03:39:30;7.53;;;2.50;;
48613;SDS011;34408;51.426;5.444;2024-03-23T03:41:57;9.30;;;2.78;;
48613;SDS011;34408;51.426;5.444;2024-03-23T03:44:22;7.88;;;2.20;;
48613;SDS011;34408;51.426;5.444;2024-03-23T03:46:49;9.32;;;2.22;;
48613;SDS011;34408;51.426;5.444;2024-03-23T03:49:16;5.90;;;1.95;;
48613;SDS011;34408;51.426;5.444;2024-03-23T03:51:43;11.00;;;3.45;;
48613;SDS011;34408;51.426;5.444;2024-03-23T03:54:09;5.00;;;1.90;;
48613;SDS011;34408;51.426;5.444;2024-03-23T03:56:36;6.20;;;2.30;;
48613;SDS011;34408;51.426;5.444;2024-03-23T03:59:02;9.07;;;2.20;;
48613;SDS011;34408;51.426;5.444;2024-03-23T04:01:29;8.43;;;2.17;;
48613;SDS011;34408;51.426;5.444;2024-03-23T04:03:55;4.93;;;2.03;;
48613;SDS011;34408;51.426;5.444;2024-03-23T04:06:23;8.30;;;1.95;;
48613;SDS011;34408;51.426;5.444;2024-03-23T04:08:49;7.28;;;2.40;;
48613;SDS011;34408;51.426;5.444;2024-03-23T04:11:16;7.75;;;2.30;;
48613;SDS011;34408;51.426;5.444;2024-03-23T04:13:41;10.85;;;2.78;;
48613;SDS011;34408;51.426;5.444;2024-03-23T04:16:09;9.15;;;2.28;;
48613;SDS011;34408;51.426;5.444;2024-03-23T04:18:35;8.95;;;2.40;;
48613;SDS011;34408;51.426;5.444;2024-03-23T04:21:02;8.25;;;2.38;;
48613;SDS011;34408;51.426;5.444;2024-03-23T04:25:57;7.45;;;2.63;;
48613;SDS011;34408;51.426;5.444;2024-03-23T04:28:28;12.90;;;3.30;;
48613;SDS011;34408;51.426;5.444;2024-03-23T04:30:55;12.13;;;2.75;;
48613;SDS011;34408;51.426;5.444;2024-03-23T04:33:21;8.05;;;3.10;;
48613;SDS011;34408;51.426;5.444;2024-03-23T04:35:48;11.02;;;2.60;;
48613;SDS011;34408;51.426;5.444;2024-03-23T04:38:14;8.05;;;2.40;;
48613;SDS011;34408;51.426;5.444;2024-03-23T04:40:43;11.18;;;3.17;;
48613;SDS011;34408;51.426;5.444;2024-03-23T04:43:10;9.25;;;2.55;;
48613;SDS011;34408;51.426;5.444;2024-03-23T04:45:36;7.32;;;2.58;;
48613;SDS011;34408;51.426;5.444;2024-03-23T04:48:03;7.28;;;2.85;;
48613;SDS011;34408;51.426;5.444;2024-03-23T04:50:30;10.52;;;3.10;;
48613;SDS011;34408;51.426;5.444;2024-03-23T04:52:56;6.78;;;3.17;;
48613;SDS011;34408;51.426;5.444;2024-03-23T04:55:23;11.27;;;3.83;;
48613;SDS011;34408;51.426;5.444;2024-03-23T04:57:51;9.45;;;3.00;;
48613;SDS011;34408;51.426;5.444;2024-03-23T05:00:17;8.20;;;3.22;;
48613;SDS011;34408;51.426;5.444;2024-03-23T05:02:44;7.28;;;3.08;;
48613;SDS011;34408;51.426;5.444;2024-03-23T05:05:11;11.60;;;3.35;;
48613;SDS011;34408;51.426;5.444;2024-03-23T05:07:37;10.27;;;3.92;;
48613;SDS011;34408;51.426;5.444;2024-03-23T05:10:04;11.60;;;3.50;;
48613;SDS011;34408;51.426;5.444;2024-03-23T05:12:31;11.05;;;4.80;;
48613;SDS011;34408;51.426;5.444;2024-03-23T05:14:59;10.63;;;3.70;;
48613;SDS011;34408;51.426;5.444;2024-03-23T05:17:25;9.07;;;4.13;;
48613;SDS011;34408;51.426;5.444;2024-03-23T05:19:51;10.18;;;3.60;;
48613;SDS011;34408;51.426;5.444;2024-03-23T05:22:17;9.68;;;4.03;;
48613;SDS011;34408;51.426;5.444;2024-03-23T05:24:44;9.80;;;4.00;;
48613;SDS011;34408;51.426;5.444;2024-03-23T05:27:10;7.82;;;4.20;;
48613;SDS011;34408;51.426;5.444;2024-03-23T05:29:37;10.85;;;4.38;;
48613;SDS011;34408;51.426;5.444;2024-03-23T05:32:05;13.27;;;5.40;;
48613;SDS011;34408;51.426;5.444;2024-03-23T05:34:32;13.32;;;4.43;;
48613;SDS011;34408;51.426;5.444;2024-03-23T05:36:58;11.60;;;4.20;;
48613;SDS011;34408;51.426;5.444;2024-03-23T05:39:24;13.57;;;4.20;;
48613;SDS011;34408;51.426;5.444;2024-03-23T05:41:50;11.18;;;4.60;;
48613;SDS011;34408;51.426;5.444;2024-03-23T05:44:17;13.63;;;4.20;;
48613;SDS011;34408;51.426;5.444;2024-03-23T05:46:43;11.73;;;3.92;;
48613;SDS011;34408;51.426;5.444;2024-03-23T05:49:15;15.45;;;4.47;;
48613;SDS011;34408;51.426;5.444;2024-03-23T05:51:42;14.30;;;4.47;;
48613;SDS011;34408;51.426;5.444;2024-03-23T05:54:12;10.45;;;3.67;;
48613;SDS011;34408;51.426;5.444;2024-03-23T05:56:38;15.35;;;4.30;;
48613;SDS011;34408;51.426;5.444;2024-03-23T05:59:05;12.85;;;5.75;;
48613;SDS011;34408;51.426;5.444;2024-03-23T06:01:32;8.82;;;3.60;;
48613;SDS011;34408;51.426;5.444;2024-03-23T06:03:58;12.70;;;4.07;;
48613;SDS011;34408;51.426;5.444;2024-03-23T06:06:27;11.93;;;3.80;;
48613;SDS011;34408;51.426;5.444;2024-03-23T06:08:56;15.57;;;4.53;;
48613;SDS011;34408;51.426;5.444;2024-03-23T06:11:21;11.38;;;3.90;;
48613;SDS011;34408;51.426;5.444;2024-03-23T06:13:48;12.82;;;4.50;;
48613;SDS011;34408;51.426;5.444;2024-03-23T06:16:15;8.95;;;3.50;;
48613;SDS011;34408;51.426;5.444;2024-03-23T06:18:41;14.63;;;3.80;;
48613;SDS011;34408;51.426;5.444;2024-03-23T06:21:12;18.65;;;5.18;;
48613;SDS011;34408;51.426;5.444;2024-03-23T06:23:41;12.75;;;4.22;;
48613;SDS011;34408;51.426;5.444;2024-03-23T06:26:08;10.88;;;3.55;;
48613;SDS011;34408;51.426;5.444;2024-03-23T06:28:34;11.98;;;4.43;;
48613;SDS011;34408;51.426;5.444;2024-03-23T06:31:01;11.00;;;4.35;;
48613;SDS011;34408;51.426;5.444;2024-03-23T06:33:27;9.07;;;3.88;;
48613;SDS011;34408;51.426;5.444;2024-03-23T06:35:54;12.85;;;4.07;;
48613;SDS011;34408;51.426;5.444;2024-03-23T06:38:20;13.27;;;3.92;;
48613;SDS011;34408;51.426;5.444;2024-03-23T06:40:48;11.13;;;3.40;;
48613;SDS011;34408;51.426;5.444;2024-03-23T06:43:16;9.95;;;4.03;;
48613;SDS011;34408;51.426;5.444;2024-03-23T06:45:42;14.45;;;3.80;;
48613;SDS011;34408;51.426;5.444;2024-03-23T06:48:08;11.90;;;3.85;;
48613;SDS011;34408;51.426;5.444;2024-03-23T06:50:35;13.75;;;4.10;;
48613;SDS011;34408;51.426;5.444;2024-03-23T06:53:01;12.30;;;4.78;;
48613;SDS011;34408;51.426;5.444;2024-03-23T06:55:30;9.45;;;3.75;;
48613;SDS011;34408;51.426;5.444;2024-03-23T06:57:57;9.93;;;3.22;;
48613;SDS011;34408;51.426;5.444;2024-03-23T07:00:24;9.70;;;3.88;;
48613;SDS011;34408;51.426;5.444;2024-03-23T07:02:50;11.30;;;4.10;;
48613;SDS011;34408;51.426;5.444;2024-03-23T07:05:17;17.35;;;4.90;;
48613;SDS011;34408;51.426;5.444;2024-03-23T07:07:43;9.70;;;3.53;;
48613;SDS011;34408;51.426;5.444;2024-03-23T07:10:10;17.00;;;4.28;;
48613;SDS011;34408;51.426;5.444;2024-03-23T07:12:36;12.30;;;4.28;;
48613;SDS011;34408;51.426;5.444;2024-03-23T07:15:04;14.55;;;3.85;;
48613;SDS011;34408;51.426;5.444;2024-03-23T07:17:31;8.48;;;3.30;;
48613;SDS011;34408;51.426;5.444;2024-03-23T07:20:00;14.43;;;3.78;;
48613;SDS011;34408;51.426;5.444;2024-03-23T07:22:27;14.95;;;4.25;;
48613;SDS011;34408;51.426;5.444;2024-03-23T07:24:54;9.98;;;3.75;;
48613;SDS011;34408;51.426;5.444;2024-03-23T07:27:20;12.82;;;4.65;;
48613;SDS011;34408;51.426;5.444;2024-03-23T07:29:46;13.57;;;4.15;;
48613;SDS011;34408;51.426;5.444;2024-03-23T07:32:14;10.18;;;3.65;;
48613;SDS011;34408;51.426;5.444;2024-03-23T07:34:41;13.48;;;4.28;;
48613;SDS011;34408;51.426;5.444;2024-03-23T07:37:09;11.68;;;3.03;;
48613;SDS011;34408;51.426;5.444;2024-03-23T07:39:38;11.48;;;3.63;;
48613;SDS011;34408;51.426;5.444;2024-03-23T07:42:05;11.32;;;3.90;;
48613;SDS011;34408;51.426;5.444;2024-03-23T07:44:32;8.70;;;2.90;;
48613;SDS011;34408;51.426;5.444;2024-03-23T07:46:58;14.07;;;3.63;;
48613;SDS011;34408;51.426;5.444;2024-03-23T07:49:26;12.65;;;4.25;;
48613;SDS011;34408;51.426;5.444;2024-03-23T07:51:52;8.27;;;2.85;;
48613;SDS011;34408;51.426;5.444;2024-03-23T07:54:19;14.68;;;3.35;;
48613;SDS011;34408;51.426;5.444;2024-03-23T07:56:45;14.30;;;3.13;;
48613;SDS011;34408;51.426;5.444;2024-03-23T07:59:12;10.13;;;3.67;;
48613;SDS011;34408;51.426;5.444;2024-03-23T08:01:37;16.20;;;3.63;;
48613;SDS011;34408;51.426;5.444;2024-03-23T08:04:05;9.77;;;2.78;;
48613;SDS011;34408;51.426;5.444;2024-03-23T08:06:32;12.27;;;2.92;;
48613;SDS011;34408;51.426;5.444;2024-03-23T08:08:59;13.10;;;2.72;;
48613;SDS011;34408;51.426;5.444;2024-03-23T08:11:25;7.20;;;2.88;;
48613;SDS011;34408;51.426;5.444;2024-03-23T08:13:53;12.50;;;2.85;;
48613;SDS011;34408;51.426;5.444;2024-03-23T08:16:19;18.15;;;3.70;;
48613;SDS011;34408;51.426;5.444;2024-03-23T08:18:46;9.77;;;3.13;;
48613;SDS011;34408;51.426;5.444;2024-03-23T08:21:11;10.18;;;2.13;;
48613;SDS011;34408;51.426;5.444;2024-03-23T08:23:40;9.70;;;2.97;;
48613;SDS011;34408;51.426;5.444;2024-03-23T08:26:06;20.13;;;4.78;;
48613;SDS011;34408;51.426;5.444;2024-03-23T08:28:34;16.40;;;3.33;;
48613;SDS011;34408;51.426;5.444;2024-03-23T08:33:27;12.65;;;2.85;;
48613;SDS011;34408;51.426;5.444;2024-03-23T08:35:54;14.63;;;4.55;;
48613;SDS011;34408;51.426;5.444;2024-03-23T08:38:21;8.38;;;2.65;;
48613;SDS011;34408;51.426;5.444;2024-03-23T08:40:55;13.07;;;3.10;;
48613;SDS011;34408;51.426;5.444;2024-03-23T08:43:23;9.88;;;3.30;;
48613;SDS011;34408;51.426;5.444;2024-03-23T08:45:49;11.23;;;3.03;;
48613;SDS011;34408;51.426;5.444;2024-03-23T08:48:15;14.18;;;4.32;;
48613;SDS011;34408;51.426;5.444;2024-03-23T08:50:41;10.70;;;2.70;;
48613;SDS011;34408;51.426;5.444;2024-03-23T08:53:08;7.95;;;2.55;;
48613;SDS011;34408;51.426;5.444;2024-03-23T08:55:34;17.90;;;2.65;;
48613;SDS011;34408;51.426;5.444;2024-03-23T08:58:03;10.73;;;3.42;;
48613;SDS011;34408;51.426;5.444;2024-03-23T09:00:29;9.82;;;3.67;;
48613;SDS011;34408;51.426;5.444;2024-03-23T09:02:56;12.07;;;2.35;;
48613;SDS011;34408;51.426;5.444;2024-03-23T09:05:22;14.00;;;2.30;;
48613;SDS011;34408;51.426;5.444;2024-03-23T09:07:50;9.68;;;2.40;;
48613;SDS011;34408;51.426;5.444;2024-03-23T09:10:16;8.45;;;1.38;;
48613;SDS011;34408;51.426;5.444;2024-03-23T09:12:43;7.72;;;1.00;;
48613;SDS011;34408;51.426;5.444;2024-03-23T09:15:10;6.43;;;1.17;;
48613;SDS011;34408;51.426;5.444;2024-03-23T09:17:37;4.00;;;1.48;;
48613;SDS011;34408;51.426;5.444;2024-03-23T09:20:03;5.57;;;1.60;;
48613;SDS011;34408;51.426;5.444;2024-03-23T09:22:30;5.53;;;1.13;;
48613;SDS011;34408;51.426;5.444;2024-03-23T09:24:56;5.53;;;1.50;;
48613;SDS011;34408;51.426;5.444;2024-03-23T09:27:23;6.60;;;2.08;;
48613;SDS011;34408;51.426;5.444;2024-03-23T09:29:49;7.75;;;1.58;;
48613;SDS011;34408;51.426;5.444;2024-03-23T09:32:17;8.77;;;1.77;;
48613;SDS011;34408;51.426;5.444;2024-03-23T09:34:43;6.50;;;1.63;;
48613;SDS011;34408;51.426;5.444;2024-03-23T09:37:10;7.93;;;1.77;;
48613;SDS011;34408;51.426;5.444;2024-03-23T09:39:37;10.52;;;1.77;;
48613;SDS011;34408;51.426;5.444;2024-03-23T09:42:03;11.15;;;2.30;;
48613;SDS011;34408;51.426;5.444;2024-03-23T09:44:31;13.10;;;2.40;;
48613;SDS011;34408;51.426;5.444;2024-03-23T09:46:58;7.10;;;2.03;;
48613;SDS011;34408;51.426;5.444;2024-03-23T09:49:25;8.52;;;1.85;;
48613;SDS011;34408;51.426;5.444;2024-03-23T09:51:53;8.07;;;1.70;;
48613;SDS011;34408;51.426;5.444;2024-03-23T09:54:20;8.25;;;1.90;;
48613;SDS011;34408;51.426;5.444;2024-03-23T09:56:48;13.77;;;2.35;;
48613;SDS011;34408;51.426;5.444;2024-03-23T09:59:14;8.35;;;1.48;;
48613;SDS011;34408;51.426;5.444;2024-03-23T10:01:41;14.32;;;2.22;;
48613;SDS011;34408;51.426;5.444;2024-03-23T10:06:35;10.63;;;2.40;;
48613;SDS011;34408;51.426;5.444;2024-03-23T10:09:02;9.77;;;2.17;;
48613;SDS011;34408;51.426;5.444;2024-03-23T10:11:43;9.30;;;2.74;;
48613;SDS011;34408;51.426;5.444;2024-03-23T10:14:09;7.07;;;1.73;;
48613;SDS011;34408;51.426;5.444;2024-03-23T10:16:36;11.15;;;1.90;;
48613;SDS011;34408;51.426;5.444;2024-03-23T10:19:02;6.25;;;1.67;;
48613;SDS011;34408;51.426;5.444;2024-03-23T10:21:29;7.95;;;1.50;;
48613;SDS011;34408;51.426;5.444;2024-03-23T10:23:56;10.10;;;2.67;;
48613;SDS011;34408;51.426;5.444;2024-03-23T10:26:34;4.53;;;1.23;;
48613;SDS011;34408;51.426;5.444;2024-03-23T10:29:01;6.15;;;1.52;;
48613;SDS011;34408;51.426;5.444;2024-03-23T10:31:33;4.43;;;1.20;;
48613;SDS011;34408;51.426;5.444;2024-03-23T10:34:01;6.57;;;1.58;;
48613;SDS011;34408;51.426;5.444;2024-03-23T10:36:27;8.38;;;1.90;;
48613;SDS011;34408;51.426;5.444;2024-03-23T10:38:57;8.38;;;1.42;;
48613;SDS011;34408;51.426;5.444;2024-03-23T10:41:24;8.75;;;1.50;;
48613;SDS011;34408;51.426;5.444;2024-03-23T10:43:52;5.45;;;1.88;;
48613;SDS011;34408;51.426;5.444;2024-03-23T10:46:21;5.30;;;1.40;;
48613;SDS011;34408;51.426;5.444;2024-03-23T10:48:48;4.65;;;1.40;;
48613;SDS011;34408;51.426;5.444;2024-03-23T10:51:14;8.23;;;1.75;;
48613;SDS011;34408;51.426;5.444;2024-03-23T10:53:41;8.73;;;1.88;;
48613;SDS011;34408;51.426;5.444;2024-03-23T10:58:38;7.45;;;1.90;;
48613;SDS011;34408;51.426;5.444;2024-03-23T11:01:06;7.80;;;2.08;;
48613;SDS011;34408;51.426;5.444;2024-03-23T11:03:33;5.43;;;1.73;;
48613;SDS011;34408;51.426;5.444;2024-03-23T11:06:00;7.25;;;2.10;;
48613;SDS011;34408;51.426;5.444;2024-03-23T11:08:32;8.05;;;1.80;;
48613;SDS011;34408;51.426;5.444;2024-03-23T11:11:13;6.07;;;1.40;;
48613;SDS011;34408;51.426;5.444;2024-03-23T11:13:41;5.97;;;2.03;;
48613;SDS011;34408;51.426;5.444;2024-03-23T11:16:14;10.20;;;2.13;;
48613;SDS011;34408;51.426;5.444;2024-03-23T11:18:48;11.27;;;2.45;;
48613;SDS011;34408;51.426;5.444;2024-03-23T11:24:14;12.68;;;2.63;;
48613;SDS011;34408;51.426;5.444;2024-03-23T11:29:11;7.97;;;1.65;;
48613;SDS011;34408;51.426;5.444;2024-03-23T11:31:38;6.03;;;1.70;;
48613;SDS011;34408;51.426;5.444;2024-03-23T11:34:05;3.75;;;1.40;;
48613;SDS011;34408;51.426;5.444;2024-03-23T11:36:32;5.60;;;1.27;;
48613;SDS011;34408;51.426;5.444;2024-03-23T11:38:58;7.50;;;1.92;;
48613;SDS011;34408;51.426;5.444;2024-03-23T11:41:37;7.03;;;1.40;;
48613;SDS011;34408;51.426;5.444;2024-03-23T11:44:17;7.22;;;1.52;;
48613;SDS011;34408;51.426;5.444;2024-03-23T11:46:43;9.13;;;2.47;;
48613;SDS011;34408;51.426;5.444;2024-03-23T11:51:54;9.82;;;1.55;;
48613;SDS011;34408;51.426;5.444;2024-03-23T11:54:23;4.82;;;1.40;;
48613;SDS011;34408;51.426;5.444;2024-03-23T11:56:58;4.45;;;1.90;;
48613;SDS011;34408;51.426;5.444;2024-03-23T11:59:32;6.05;;;1.42;;
48613;SDS011;34408;51.426;5.444;2024-03-23T12:01:59;8.43;;;1.33;;
48613;SDS011;34408;51.426;5.444;2024-03-23T12:04:26;5.07;;;1.05;;
48613;SDS011;34408;51.426;5.444;2024-03-23T12:09:41;5.32;;;1.13;;
48613;SDS011;34408;51.426;5.444;2024-03-23T12:12:13;3.28;;;0.98;;
48613;SDS011;34408;51.426;5.444;2024-03-23T12:14:41;8.57;;;1.80;;
48613;SDS011;34408;51.426;5.444;2024-03-23T12:17:11;6.78;;;1.30;;
48613;SDS011;34408;51.426;5.444;2024-03-23T12:19:39;4.88;;;1.52;;
48613;SDS011;34408;51.426;5.444;2024-03-23T12:22:06;4.57;;;1.17;;
48613;SDS011;34408;51.426;5.444;2024-03-23T12:24:34;4.82;;;1.10;;
48613;SDS011;34408;51.426;5.444;2024-03-23T12:27:01;4.82;;;1.30;;
48613;SDS011;34408;51.426;5.444;2024-03-23T12:29:32;5.43;;;1.25;;
48613;SDS011;34408;51.426;5.444;2024-03-23T12:31:59;5.80;;;1.42;;
48613;SDS011;34408;51.426;5.444;2024-03-23T12:34:26;4.35;;;1.27;;
48613;SDS011;34408;51.426;5.444;2024-03-23T12:36:52;7.60;;;1.20;;
48613;SDS011;34408;51.426;5.444;2024-03-23T12:39:18;6.57;;;1.30;;
48613;SDS011;34408;51.426;5.444;2024-03-23T12:41:46;4.72;;;1.38;;
48613;SDS011;34408;51.426;5.444;2024-03-23T12:44:11;2.65;;;0.98;;
48613;SDS011;34408;51.426;5.444;2024-03-23T12:46:40;8.98;;;3.20;;
48613;SDS011;34408;51.426;5.444;2024-03-23T12:49:06;2.88;;;1.17;;
48613;SDS011;34408;51.426;5.444;2024-03-23T12:51:33;2.85;;;1.00;;
48613;SDS011;34408;51.426;5.444;2024-03-23T12:56:26;1.70;;;0.70;;
48613;SDS011;34408;51.426;5.444;2024-03-23T12:58:53;1.48;;;0.60;;
48613;SDS011;34408;51.426;5.444;2024-03-23T13:01:22;3.60;;;0.93;;
48613;SDS011;34408;51.426;5.444;2024-03-23T13:03:49;2.05;;;0.80;;
48613;SDS011;34408;51.426;5.444;2024-03-23T13:06:17;3.22;;;0.77;;
48613;SDS011;34408;51.426;5.444;2024-03-23T13:08:43;2.20;;;0.68;;
48613;SDS011;34408;51.426;5.444;2024-03-23T13:11:11;1.42;;;0.50;;
48613;SDS011;34408;51.426;5.444;2024-03-23T13:13:37;3.45;;;0.77;;
48613;SDS011;34408;51.426;5.444;2024-03-23T13:16:04;2.72;;;0.80;;
48613;SDS011;34408;51.426;5.444;2024-03-23T13:18:31;4.07;;;1.00;;
48613;SDS011;34408;51.426;5.444;2024-03-23T13:20:59;3.22;;;1.02;;
48613;SDS011;34408;51.426;5.444;2024-03-23T13:23:29;2.50;;;0.90;;
48613;SDS011;34408;51.426;5.444;2024-03-23T13:26:01;4.88;;;1.40;;
48613;SDS011;34408;51.426;5.444;2024-03-23T13:28:28;7.22;;;1.20;;
48613;SDS011;34408;51.426;5.444;2024-03-23T13:30:54;2.80;;;1.02;;
48613;SDS011;34408;51.426;5.444;2024-03-23T13:33:23;7.43;;;1.42;;
48613;SDS011;34408;51.426;5.444;2024-03-23T13:35:49;4.82;;;0.95;;
48613;SDS011;34408;51.426;5.444;2024-03-23T13:38:17;7.30;;;1.20;;
48613;SDS011;34408;51.426;5.444;2024-03-23T13:40:50;2.83;;;1.17;;
48613;SDS011;34408;51.426;5.444;2024-03-23T13:43:18;3.45;;;1.60;;
48613;SDS011;34408;51.426;5.444;2024-03-23T13:45:44;3.45;;;1.33;;
48613;SDS011;34408;51.426;5.444;2024-03-23T13:48:11;3.60;;;1.02;;
48613;SDS011;34408;51.426;5.444;2024-03-23T13:50:37;3.45;;;0.82;;
48613;SDS011;34408;51.426;5.444;2024-03-23T13:53:04;5.28;;;1.27;;
48613;SDS011;34408;51.426;5.444;2024-03-23T13:55:32;5.32;;;1.30;;
48613;SDS011;34408;51.426;5.444;2024-03-23T13:57:58;7.53;;;1.30;;
48613;SDS011;34408;51.426;5.444;2024-03-23T14:00:24;5.07;;;1.20;;
48613;SDS011;34408;51.426;5.444;2024-03-23T14:02:51;4.50;;;1.27;;
48613;SDS011;34408;51.426;5.444;2024-03-23T14:05:17;8.35;;;1.90;;
48613;SDS011;34408;51.426;5.444;2024-03-23T14:07:44;8.20;;;1.50;;
48613;SDS011;34408;51.426;5.444;2024-03-23T14:10:10;5.25;;;1.33;;
48613;SDS011;34408;51.426;5.444;2024-03-23T14:12:38;4.50;;;1.45;;
48613;SDS011;34408;51.426;5.444;2024-03-23T14:15:05;7.63;;;1.88;;
48613;SDS011;34408;51.426;5.444;2024-03-23T14:17:32;4.38;;;1.40;;
48613;SDS011;34408;51.426;5.444;2024-03-23T14:19:58;3.83;;;1.27;;
48613;SDS011;34408;51.426;5.444;2024-03-23T14:22:26;8.20;;;2.25;;
48613;SDS011;34408;51.426;5.444;2024-03-23T14:24:52;7.13;;;1.38;;
48613;SDS011;34408;51.426;5.444;2024-03-23T14:27:19;6.50;;;1.80;;
48613;SDS011;34408;51.426;5.444;2024-03-23T14:29:48;4.72;;;1.38;;
48613;SDS011;34408;51.426;5.444;2024-03-23T14:32:15;5.45;;;1.40;;
48613;SDS011;34408;51.426;5.444;2024-03-23T14:34:40;4.72;;;1.52;;
48613;SDS011;34408;51.426;5.444;2024-03-23T14:37:07;5.43;;;1.42;;
48613;SDS011;34408;51.426;5.444;2024-03-23T14:39:33;7.00;;;1.40;;
48613;SDS011;34408;51.426;5.444;2024-03-23T14:42:00;4.70;;;1.40;;
48613;SDS011;34408;51.426;5.444;2024-03-23T14:44:27;4.72;;;1.52;;
48613;SDS011;34408;51.426;5.444;2024-03-23T14:46:55;2.65;;;1.27;;
48613;SDS011;34408;51.426;5.444;2024-03-23T14:49:21;4.55;;;1.60;;
48613;SDS011;34408;51.426;5.444;2024-03-23T14:51:49;6.63;;;1.67;;
48613;SDS011;34408;51.426;5.444;2024-03-23T14:54:15;5.22;;;1.83;;
48613;SDS011;34408;51.426;5.444;2024-03-23T14:56:42;3.17;;;1.15;;
48613;SDS011;34408;51.426;5.444;2024-03-23T14:59:08;4.18;;;1.30;;
48613;SDS011;34408;51.426;5.444;2024-03-23T15:01:35;4.82;;;1.08;;
48613;SDS011;34408;51.426;5.444;2024-03-23T15:04:02;4.85;;;1.33;;
48613;SDS011;34408;51.426;5.444;2024-03-23T15:06:29;8.68;;;1.48;;
48613;SDS011;34408;51.426;5.444;2024-03-23T15:08:55;6.63;;;1.60;;
48613;SDS011;34408;51.426;5.444;2024-03-23T15:11:21;7.88;;;1.55;;
48613;SDS011;34408;51.426;5.444;2024-03-23T15:13:49;4.97;;;1.65;;
48613;SDS011;34408;51.426;5.444;2024-03-23T15:16:16;3.05;;;1.35;;
48613;SDS011;34408;51.426;5.444;2024-03-23T15:18:43;4.65;;;1.88;;
48613;SDS011;34408;51.426;5.444;2024-03-23T15:21:11;6.10;;;1.38;;
48613;SDS011;34408;51.426;5.444;2024-03-23T15:23:37;6.70;;;1.83;;
48613;SDS011;34408;51.426;5.444;2024-03-23T15:27:26;7.95;;;1.63;;
48613;SDS011;34408;51.426;5.444;2024-03-23T15:29:53;6.82;;;1.92;;
48613;SDS011;34408;51.426;5.444;2024-03-23T15:32:22;5.63;;;1.42;;
48613;SDS011;34408;51.426;5.444;2024-03-23T15:34:48;2.88;;;1.42;;
48613;SDS011;34408;51.426;5.444;2024-03-23T15:37:14;7.47;;;1.95;;
48613;SDS011;34408;51.426;5.444;2024-03-23T15:39:41;4.50;;;1.10;;
48613;SDS011;34408;51.426;5.444;2024-03-23T15:42:07;3.85;;;1.20;;
48613;SDS011;34408;51.426;5.444;2024-03-23T15:44:35;2.25;;;0.93;;
48613;SDS011;34408;51.426;5.444;2024-03-23T15:47:01;3.92;;;1.30;;
48613;SDS011;34408;51.426;5.444;2024-03-23T15:49:28;2.95;;;1.13;;
48613;SDS011;34408;51.426;5.444;2024-03-23T15:51:54;3.28;;;1.00;;
48613;SDS011;34408;51.426;5.444;2024-03-23T15:54:22;4.85;;;0.80;;
48613;SDS011;34408;51.426;5.444;2024-03-23T15:56:48;2.22;;;0.93;;
48613;SDS011;34408;51.426;5.444;2024-03-23T15:59:15;5.90;;;1.50;;
48613;SDS011;34408;51.426;5.444;2024-03-23T16:01:42;3.58;;;2.28;;
48613;SDS011;34408;51.426;5.444;2024-03-23T16:04:10;6.63;;;2.00;;